Time,TemperatureF,DewpointF,PressureIn,WindDirection,WindDirectionDegrees,WindSpeedMPH,WindSpeedGustMPH,Humidity,HourlyPrecipIn,Conditions,Clouds,dailyrainin,SolarRadiationWatts/m^2,SoftwareType,DateUTC
2013-04-09 00:08:00,44.6,39.0,29.96,SE,146,1.0,3.0,80,0.00,,,0.00,0,weatherlink.com 1.10,2013-04-09 07:08:00,
2013-04-09 00:23:00,43.9,39.0,29.97,SSE,157,2.0,4.0,82,0.00,,,0.00,0,weatherlink.com 1.10,2013-04-09 07:23:00,
2013-04-09 00:38:00,43.7,39.0,29.98,SSE,154,3.0,4.0,82,0.00,,,0.00,0,weatherlink.com 1.10,2013-04-09 07:38:00,
2013-04-09 00:53:00,43.5,38.0,29.98,SSE,147,1.0,4.0,82,0.00,,,0.00,0,weatherlink.com 1.10,2013-04-09 07:53:00,
2013-04-09 02:09:00,42.9,38.0,29.98,SE,137,1.0,3.0,84,0.00,,,0.00,0,weatherlink.com 1.10,2013-04-09 09:09:00,
2013-04-09 02:39:00,43.2,39.0,29.99,NE,49,2.0,4.0,84,0.00,,,0.00,0,weatherlink.com 1.10,2013-04-09 09:39:00,
2013-04-09 02:54:00,43.3,39.0,29.99,East,87,1.0,3.0,83,0.00,,,0.00,0,weatherlink.com 1.10,2013-04-09 09:54:00,
2013-04-09 03:24:00,42.0,38.0,29.99,SE,137,2.0,3.0,87,0.00,,,0.00,0,weatherlink.com 1.10,2013-04-09 10:24:00,
2013-04-09 03:39:00,41.9,38.0,29.98,SSE,148,1.0,3.0,87,0.00,,,0.00,0,weatherlink.com 1.10,2013-04-09 10:39:00,
2013-04-09 04:09:00,40.9,38.0,29.99,SE,145,1.0,3.0,88,0.00,,,0.00,0,weatherlink.com 1.10,2013-04-09 11:09:00,
2013-04-09 04:24:00,40.8,38.0,29.99,SE,144,2.0,3.0,89,0.00,,,0.00,0,weatherlink.com 1.10,2013-04-09 11:24:00,
2013-04-09 04:54:00,40.4,38.0,30.00,SE,136,1.0,3.0,90,0.00,,,0.00,0,weatherlink.com 1.10,2013-04-09 11:54:00,
2013-04-09 05:09:00,40.6,38.0,30.00,South,169,0.0,5.0,90,0.00,,,0.00,0,weatherlink.com 1.10,2013-04-09 12:09:00,
2013-04-09 05:54:00,39.9,38.0,30.01,SSE,147,4.0,4.0,91,0.00,,,0.00,0,weatherlink.com 1.10,2013-04-09 12:54:00,
2013-04-09 06:09:00,40.0,38.0,30.01,SSE,153,2.0,4.0,91,0.00,,,0.00,0,weatherlink.com 1.10,2013-04-09 13:09:00,
2013-04-09 06:24:00,39.6,37.0,30.01,SE,140,2.0,3.0,91,0.00,,,0.00,0,weatherlink.com 1.10,2013-04-09 13:24:00,
2013-04-09 06:39:00,39.8,37.0,30.01,SE,129,1.0,4.0,91,0.00,,,0.00,0,weatherlink.com 1.10,2013-04-09 13:39:00,
2013-04-09 06:54:00,40.2,38.0,30.01,SE,144,0.0,4.0,90,0.00,,,0.00,9,weatherlink.com 1.10,2013-04-09 13:54:00,
2013-04-09 07:09:00,40.1,38.0,30.01,SE,137,1.0,3.0,90,0.00,,,0.00,16,weatherlink.com 1.10,2013-04-09 14:09:00,
2013-04-09 07:24:00,39.9,37.0,30.02,SE,134,2.0,3.0,90,0.00,,,0.00,19,weatherlink.com 1.10,2013-04-09 14:24:00,
2013-04-09 07:39:00,41.2,38.0,30.02,SE,143,1.0,3.0,89,0.00,,,0.00,23,weatherlink.com 1.10,2013-04-09 14:39:00,
2013-04-09 07:54:00,42.5,39.0,30.02,North,349,1.0,2.0,86,0.00,,,0.00,139,weatherlink.com 1.10,2013-04-09 14:54:00,
2013-04-09 08:09:00,44.3,39.0,30.03,NNE,19,2.0,2.0,82,0.00,,,0.00,46,weatherlink.com 1.10,2013-04-09 15:09:00,
2013-04-09 08:24:00,45.3,39.0,30.03,ENE,59,1.0,2.0,77,0.00,,,0.00,30,weatherlink.com 1.10,2013-04-09 15:24:00,
2013-04-09 08:39:00,46.1,39.0,30.03,NNE,28,1.0,2.0,76,0.00,,,0.00,33,weatherlink.com 1.10,2013-04-09 15:39:00,
2013-04-09 08:54:00,49.9,43.0,30.03,North,350,1.0,5.0,76,0.00,,,0.00,371,weatherlink.com 1.10,2013-04-09 15:54:00,
2013-04-09 09:10:00,54.1,45.0,30.03,WNW,296,1.0,3.0,72,0.00,,,0.00,443,weatherlink.com 1.10,2013-04-09 16:10:00,
2013-04-09 09:25:00,56.8,39.0,30.03,North,355,0.0,3.0,51,0.00,,,0.00,341,weatherlink.com 1.10,2013-04-09 16:25:00,
2013-04-09 09:40:00,59.7,38.0,30.02,NW,304,1.0,6.0,44,0.00,,,0.00,526,weatherlink.com 1.10,2013-04-09 16:40:00,
2013-04-09 09:55:00,61.7,38.0,30.02,NNW,340,3.0,5.0,41,0.00,,,0.00,380,weatherlink.com 1.10,2013-04-09 16:55:00,
2013-04-09 10:10:00,62.5,39.0,30.02,WNW,300,2.0,6.0,42,0.00,,,0.00,287,weatherlink.com 1.10,2013-04-09 17:10:00,
2013-04-09 10:25:00,63.5,39.0,30.02,NW,313,2.0,8.0,40,0.00,,,0.00,675,weatherlink.com 1.10,2013-04-09 17:25:00,
2013-04-09 10:40:00,64.6,35.0,30.03,WSW,244,4.0,7.0,33,0.00,,,0.00,710,weatherlink.com 1.10,2013-04-09 17:40:00,
2013-04-09 10:55:00,65.4,38.0,30.03,NW,326,9.0,11.0,37,0.00,,,0.00,747,weatherlink.com 1.10,2013-04-09 17:55:00,
2013-04-09 11:10:00,64.9,36.0,30.02,WNW,298,0.0,12.0,35,0.00,,,0.00,779,weatherlink.com 1.10,2013-04-09 18:10:00,
2013-04-09 11:25:00,67.4,38.0,30.02,North,351,5.0,10.0,34,0.00,,,0.00,810,weatherlink.com 1.10,2013-04-09 18:25:00,
2013-04-09 11:40:00,68.5,33.0,30.02,North,355,7.0,12.0,27,0.00,,,0.00,835,weatherlink.com 1.10,2013-04-09 18:40:00,
2013-04-09 11:55:00,68.8,35.0,30.02,NNE,15,11.0,13.0,29,0.00,,,0.00,858,weatherlink.com 1.10,2013-04-09 18:55:00,
2013-04-09 12:11:00,67.7,33.0,30.02,North,350,6.0,16.0,28,0.00,,,0.00,872,weatherlink.com 1.10,2013-04-09 19:11:00,
2013-04-09 12:25:00,69.3,33.0,30.01,NW,324,3.0,13.0,26,0.00,,,0.00,872,weatherlink.com 1.10,2013-04-09 19:25:00,
2013-04-09 12:41:00,69.9,31.0,30.01,North,350,9.0,15.0,24,0.00,,,0.00,896,weatherlink.com 1.10,2013-04-09 19:41:00,
2013-04-09 12:56:00,70.1,36.0,30.00,North,355,6.0,13.0,29,0.00,,,0.00,904,weatherlink.com 1.10,2013-04-09 19:56:00,
2013-04-09 13:11:00,69.9,29.0,30.00,North,355,4.0,18.0,22,0.00,,,0.00,909,weatherlink.com 1.10,2013-04-09 20:11:00,
2013-04-09 13:26:00,71.2,31.0,29.99,WNW,298,6.0,15.0,23,0.00,,,0.00,905,weatherlink.com 1.10,2013-04-09 20:26:00,
2013-04-09 13:41:00,71.8,33.0,29.99,NE,53,9.0,9.0,24,0.00,,,0.00,900,weatherlink.com 1.10,2013-04-09 20:41:00,
2013-04-09 13:56:00,71.8,32.0,29.99,NNE,16,5.0,13.0,23,0.00,,,0.00,888,weatherlink.com 1.10,2013-04-09 20:56:00,
2013-04-09 14:11:00,72.2,30.0,29.99,NNE,13,5.0,11.0,21,0.00,,,0.00,874,weatherlink.com 1.10,2013-04-09 21:11:00,
2013-04-09 15:11:00,73.1,26.0,29.98,West,259,5.0,15.0,17,0.00,,,0.00,782,weatherlink.com 1.10,2013-04-09 22:11:00,
2013-04-09 15:26:00,74.0,28.0,29.98,NNW,338,5.0,19.0,18,0.00,,,0.00,751,weatherlink.com 1.10,2013-04-09 22:26:00,
2013-04-09 15:41:00,74.0,28.0,29.98,NNE,14,7.0,10.0,18,0.00,,,0.00,714,weatherlink.com 1.10,2013-04-09 22:41:00,
2013-04-09 15:56:00,74.6,27.0,29.97,WNW,287,8.0,11.0,17,0.00,,,0.00,677,weatherlink.com 1.10,2013-04-09 22:56:00,
2013-04-09 16:11:00,74.8,26.0,29.97,NW,325,8.0,14.0,16,0.00,,,0.00,635,weatherlink.com 1.10,2013-04-09 23:11:00,
2013-04-09 16:26:00,74.0,22.0,29.97,North,11,11.0,15.0,14,0.00,,,0.00,591,weatherlink.com 1.10,2013-04-09 23:26:00,
2013-04-09 16:41:00,73.8,25.0,29.97,NNW,348,6.0,13.0,16,0.00,,,0.00,548,weatherlink.com 1.10,2013-04-09 23:41:00,
2013-04-09 16:56:00,74.0,22.0,29.97,WNW,291,3.0,17.0,14,0.00,,,0.00,499,weatherlink.com 1.10,2013-04-09 23:56:00,
2013-04-09 17:11:00,74.4,25.0,29.97,North,5,7.0,15.0,16,0.00,,,0.00,454,weatherlink.com 1.10,2013-04-10 00:11:00,
2013-04-09 17:26:00,74.3,27.0,29.96,NNE,24,9.0,16.0,17,0.00,,,0.00,404,weatherlink.com 1.10,2013-04-10 00:26:00,
2013-04-09 17:41:00,74.0,26.0,29.96,NW,304,7.0,13.0,17,0.00,,,0.00,353,weatherlink.com 1.10,2013-04-10 00:41:00,
2013-04-09 17:56:00,73.5,23.0,29.97,NW,321,3.0,14.0,15,0.00,,,0.00,299,weatherlink.com 1.10,2013-04-10 00:56:00,
2013-04-09 18:11:00,73.1,30.0,29.97,North,355,10.0,13.0,20,0.00,,,0.00,248,weatherlink.com 1.10,2013-04-10 01:11:00,
2013-04-09 18:26:00,72.5,29.0,29.97,NW,307,12.0,12.0,20,0.00,,,0.00,197,weatherlink.com 1.10,2013-04-10 01:26:00,
2013-04-09 18:41:00,71.9,30.0,29.97,NW,321,2.0,11.0,21,0.00,,,0.00,137,weatherlink.com 1.10,2013-04-10 01:41:00,
2013-04-09 18:56:00,71.1,41.0,29.97,WNW,288,2.0,11.0,34,0.00,,,0.00,81,weatherlink.com 1.10,2013-04-10 01:56:00,
2013-04-09 19:11:00,69.1,43.0,29.97,West,266,3.0,6.0,39,0.00,,,0.00,25,weatherlink.com 1.10,2013-04-10 02:11:00,
2013-04-09 19:27:00,67.5,43.0,29.98,WNW,298,1.0,6.0,42,0.00,,,0.00,12,weatherlink.com 1.10,2013-04-10 02:27:00,
2013-04-09 19:42:00,65.6,44.0,29.98,NW,325,1.0,3.0,46,0.00,,,0.00,5,weatherlink.com 1.10,2013-04-10 02:42:00,
2013-04-09 19:57:00,64.1,44.0,29.99,NW,307,1.0,6.0,48,0.00,,,0.00,0,weatherlink.com 1.10,2013-04-10 02:57:00,
2013-04-09 20:12:00,61.3,44.0,29.99,WNW,285,2.0,3.0,54,0.00,,,0.00,0,weatherlink.com 1.10,2013-04-10 03:12:00,
2013-04-09 20:42:00,57.3,45.0,30.00,SE,138,2.0,3.0,64,0.00,,,0.00,0,weatherlink.com 1.10,2013-04-10 03:42:00,
2013-04-09 20:57:00,57.0,45.0,30.00,SSE,147,3.0,3.0,65,0.00,,,0.00,0,weatherlink.com 1.10,2013-04-10 03:57:00,
2013-04-09 21:12:00,56.5,45.0,30.01,SE,145,3.0,4.0,65,0.00,,,0.00,0,weatherlink.com 1.10,2013-04-10 04:12:00,
2013-04-09 21:27:00,56.2,45.0,30.01,SE,142,1.0,3.0,67,0.00,,,0.00,0,weatherlink.com 1.10,2013-04-10 04:27:00,
2013-04-09 21:42:00,55.8,45.0,30.02,SE,143,3.0,3.0,67,0.00,,,0.00,0,weatherlink.com 1.10,2013-04-10 04:42:00,
2013-04-09 21:57:00,55.3,44.0,30.02,SE,142,2.0,3.0,67,0.00,,,0.00,0,weatherlink.com 1.10,2013-04-10 04:57:00,
2013-04-09 22:12:00,55.4,44.0,30.02,SSE,153,0.0,3.0,65,0.00,,,0.00,0,weatherlink.com 1.10,2013-04-10 05:12:00,
2013-04-09 22:27:00,55.3,44.0,30.02,SE,146,1.0,4.0,67,0.00,,,0.00,0,weatherlink.com 1.10,2013-04-10 05:27:00,
2013-04-09 22:42:00,54.5,43.0,30.03,SE,134,3.0,4.0,66,0.00,,,0.00,0,weatherlink.com 1.10,2013-04-10 05:42:00,
2013-04-09 22:57:00,55.4,44.0,30.02,SSE,148,3.0,4.0,66,0.00,,,0.00,0,weatherlink.com 1.10,2013-04-10 05:57:00,
2013-04-09 23:12:00,54.7,44.0,30.02,NE,46,1.0,6.0,67,0.00,,,0.00,0,weatherlink.com 1.10,2013-04-10 06:12:00,
2013-04-09 23:27:00,54.6,44.0,30.02,SSE,153,2.0,3.0,67,0.00,,,0.00,0,weatherlink.com 1.10,2013-04-10 06:27:00,
2013-04-09 23:42:00,54.9,44.0,30.02,ENE,64,1.0,4.0,66,0.00,,,0.00,0,weatherlink.com 1.10,2013-04-10 06:42:00,
2013-04-09 23:57:00,55.2,43.0,30.02,SE,140,2.0,5.0,64,0.00,,,0.00,0,weatherlink.com 1.10,2013-04-10 06:57:00,